Time;durP1;ratioP1;P1;durP2;ratioP2;P2;SDS_P1;SDS_P2;PMS_P1;PMS_P2;Temp;Humidity;BMP_temperature;BMP_pressure;BME280_temperature;BME280_humidity;BME280_pressure;Samples;Min_cycle;Max_cycle;Signal;HPM_P1;HPM_P2
2023/04/12 00:02:11;;;;;;;8.23;2.88;;;7.00;99.90;;;;;;4881583;28;90820;-31
2023/04/12 00:04:37;;;;;;;7.03;3.25;;;7.00;99.90;;;;;;4914507;23;89217;-32
2023/04/12 00:07:02;;;;;;;8.07;2.67;;;7.00;99.90;;;;;;4881393;28;90079;-33
2023/04/12 00:09:29;;;;;;;4.30;3.85;;;7.00;99.90;;;;;;4882622;28;90116;-31
2023/04/12 00:11:56;;;;;;;6.32;3.58;;;7.00;99.90;;;;;;4882088;28;90667;-31
2023/04/12 00:14:22;;;;;;;5.53;2.00;;;7.10;99.90;;;;;;4882590;28;90367;-30
2023/04/12 00:16:49;;;;;;;12.80;2.85;;;7.10;99.90;;;;;;4881529;28;90201;-35
2023/04/12 00:19:15;;;;;;;13.63;4.15;;;7.10;99.90;;;;;;4882440;28;90333;-30
2023/04/12 00:21:42;;;;;;;4.30;2.35;;;7.10;99.90;;;;;;4879691;28;89288;-33
2023/04/12 00:24:07;;;;;;;4.47;2.83;;;7.20;99.90;;;;;;4868670;28;88887;-35
2023/04/12 00:26:33;;;;;;;8.88;3.70;;;7.20;99.90;;;;;;4882209;28;89388;-30
2023/04/12 00:28:58;;;;;;;12.40;3.88;;;7.20;99.90;;;;;;4880763;28;89126;-34
2023/04/12 00:31:24;;;;;;;4.68;3.22;;;7.20;99.90;;;;;;4882044;28;89882;-31
2023/04/12 00:33:50;;;;;;;10.30;3.05;;;7.30;99.90;;;;;;4881523;28;89542;-31
2023/04/12 00:36:15;;;;;;;7.93;3.33;;;7.30;99.90;;;;;;4882484;28;90301;-34
2023/04/12 00:38:41;;;;;;;10.65;3.10;;;7.30;99.90;;;;;;4880938;28;89703;-34
2023/04/12 00:41:07;;;;;;;6.47;3.05;;;7.50;99.90;;;;;;4881746;28;89947;-32
2023/04/12 00:43:33;;;;;;;3.83;3.30;;;7.60;99.90;;;;;;4881606;28;88348;-33
2023/04/12 00:46:00;;;;;;;10.63;3.08;;;7.60;99.90;;;;;;4881270;28;89780;-31
2023/04/12 00:48:26;;;;;;;8.02;3.70;;;7.80;99.90;;;;;;4881672;28;90961;-33
2023/04/12 00:50:54;;;;;;;8.00;2.83;;;7.80;99.90;;;;;;4881167;28;90693;-33
2023/04/12 00:53:21;;;;;;;16.90;3.00;;;7.90;99.90;;;;;;4881373;28;89697;-30
2023/04/12 00:55:48;;;;;;;7.82;3.45;;;8.00;99.90;;;;;;4881158;28;89165;-35
2023/04/12 00:58:15;;;;;;;10.52;2.75;;;8.10;99.90;;;;;;4881142;28;90126;-33
2023/04/12 01:00:48;;;;;;;8.43;3.78;;;8.00;99.90;;;;;;4881473;28;89911;-32
2023/04/12 01:03:26;;;;;;;7.60;3.35;;;8.10;99.90;;;;;;4881725;28;89755;-31
2023/04/12 01:06:08;;;;;;;5.90;3.57;;;8.10;99.90;;;;;;4881282;28;90113;-32
2023/04/12 01:08:50;;;;;;;8.63;3.35;;;8.10;99.90;;;;;;4869272;28;89627;-34
2023/04/12 01:11:27;;;;;;;5.30;3.10;;;8.30;99.90;;;;;;4881387;28;89144;-33
2023/04/12 01:14:08;;;;;;;4.73;2.77;;;8.20;99.90;;;;;;4881121;28;89893;-32
2023/04/12 01:16:43;;;;;;;6.28;3.67;;;8.30;99.90;;;;;;4880622;28;89608;-32
2023/04/12 01:19:21;;;;;;;5.13;4.15;;;8.30;99.90;;;;;;4881205;28;89689;-34
2023/04/12 01:22:12;;;;;;;19.35;4.35;;;8.30;99.90;;;;;;4881435;28;89658;-30
2023/04/12 01:25:09;;;;;;;3.63;3.08;;;8.40;99.90;;;;;;4868178;28;88369;-32
2023/04/12 01:27:49;;;;;;;5.25;2.90;;;8.40;99.90;;;;;;4880997;28;88807;-35
2023/04/12 01:30:18;;;;;;;4.32;3.30;;;8.40;99.90;;;;;;4880857;28;90072;-33
2023/04/12 01:32:46;;;;;;;;;;;8.40;99.90;;;;;;4880901;28;89260;-33
2023/04/12 01:35:13;;;;;;;5.82;2.90;;;8.40;99.90;;;;;;4884370;28;88586;-32
2023/04/12 01:37:40;;;;;;;4.43;3.58;;;8.40;99.90;;;;;;4884250;28;90127;-32
2023/04/12 01:40:08;;;;;;;9.45;4.20;;;8.30;99.90;;;;;;4883053;28;89357;-35
2023/04/12 01:42:34;;;;;;;4.65;4.20;;;8.30;99.90;;;;;;4883703;28;89687;-31
2023/04/12 01:45:01;;;;;;;6.35;3.20;;;8.40;99.90;;;;;;4884244;28;88568;-32
2023/04/12 01:47:27;;;;;;;6.80;5.80;;;8.40;99.90;;;;;;4884087;28;90120;-33
2023/04/12 01:50:10;;;;;;;10.98;3.97;;;8.40;99.90;;;;;;4883502;28;89999;-29
2023/04/12 01:52:40;;;;;;;7.18;4.97;;;8.40;99.90;;;;;;4874182;28;89234;-31
2023/04/12 01:55:06;;;;;;;5.82;4.45;;;8.40;99.90;;;;;;4884768;28;89539;-34
2023/04/12 01:57:34;;;;;;;7.63;3.95;;;8.40;99.90;;;;;;4883792;28;90658;-30
2023/04/12 02:00:05;;;;;;;5.95;3.40;;;8.40;99.90;;;;;;4883579;28;90058;-34
2023/04/12 02:02:30;;;;;;;6.72;4.03;;;8.40;99.90;;;;;;4883046;28;89534;-31
2023/04/12 02:04:58;;;;;;;17.05;3.78;;;8.40;99.90;;;;;;4882623;28;90031;-32
2023/04/12 02:07:24;;;;;;;8.00;3.43;;;8.40;99.90;;;;;;4884032;28;89593;-32
2023/04/12 02:09:49;;;;;;;5.30;3.40;;;8.40;99.90;;;;;;4883328;28;89355;-31
2023/04/12 02:12:15;;;;;;;7.53;3.97;;;8.50;99.90;;;;;;4884514;28;88783;-33
2023/04/12 02:14:41;;;;;;;15.52;3.95;;;8.50;99.90;;;;;;4882886;28;89708;-32
2023/04/12 02:17:07;;;;;;;6.72;4.25;;;8.50;99.90;;;;;;4883610;28;89885;-35
2023/04/12 02:19:32;;;;;;;5.85;4.32;;;8.50;99.90;;;;;;4883197;28;90721;-30
2023/04/12 02:21:58;;;;;;;6.20;3.25;;;8.50;99.90;;;;;;4883468;28;89529;-31
2023/04/12 02:24:24;;;;;;;5.72;4.03;;;8.40;99.90;;;;;;4871089;28;87804;-35
2023/04/12 02:26:49;;;;;;;6.50;4.60;;;8.40;99.90;;;;;;4882885;28;90229;-33
2023/04/12 02:29:16;;;;;;;10.13;5.43;;;8.40;99.90;;;;;;4882440;28;91337;-33
2023/04/12 02:31:41;;;;;;;8.57;4.13;;;8.40;99.90;;;;;;4882902;28;90408;-33
2023/04/12 02:34:07;;;;;;;5.57;4.40;;;8.40;99.90;;;;;;4883597;28;89759;-34
2023/04/12 02:36:34;;;;;;;5.28;3.40;;;8.40;99.90;;;;;;4883584;28;90219;-30
2023/04/12 02:38:59;;;;;;;6.65;3.90;;;8.40;99.90;;;;;;4882085;28;89556;-33
2023/04/12 02:41:25;;;;;;;7.90;3.47;;;8.40;99.90;;;;;;4883194;28;88049;-32
2023/04/12 02:43:51;;;;;;;9.55;4.43;;;8.40;99.90;;;;;;4883060;28;90178;-30
2023/04/12 02:46:22;;;;;;;5.82;3.67;;;8.40;99.90;;;;;;4882670;28;89751;-35
2023/04/12 02:48:48;;;;;;;8.02;4.18;;;8.40;99.90;;;;;;4883270;28;89759;-33
2023/04/12 02:51:14;;;;;;;4.45;3.08;;;8.30;99.90;;;;;;4883655;28;89360;-32
2023/04/12 02:53:40;;;;;;;3.65;2.97;;;8.40;99.90;;;;;;4882071;28;90505;-33
2023/04/12 02:56:07;;;;;;;8.43;3.03;;;8.50;99.90;;;;;;4882692;28;90197;-33
2023/04/12 02:58:34;;;;;;;5.43;2.60;;;8.50;99.90;;;;;;4883378;28;88938;-34
2023/04/12 03:00:59;;;;;;;4.85;2.67;;;8.50;99.90;;;;;;4882882;28;90274;-32
2023/04/12 03:03:27;;;;;;;4.53;3.13;;;8.50;99.90;;;;;;4882541;28;88374;-32
2023/04/12 03:05:53;;;;;;;5.13;2.65;;;8.60;99.90;;;;;;4882587;28;89910;-32
2023/04/12 03:08:19;;;;;;;4.97;2.78;;;8.50;99.90;;;;;;4882700;28;89182;-32
2023/04/12 03:10:44;;;;;;;4.07;2.85;;;8.40;99.90;;;;;;4883065;28;89307;-33
2023/04/12 03:13:10;;;;;;;3.53;2.75;;;8.50;99.90;;;;;;4883427;28;89633;-32
2023/04/12 03:15:36;;;;;;;3.83;2.63;;;8.50;99.90;;;;;;4882430;28;90128;-31
2023/04/12 03:18:01;;;;;;;5.50;2.97;;;8.50;99.90;;;;;;4895079;28;90709;-34
2023/04/12 03:20:27;;;;;;;7.53;2.90;;;8.60;99.90;;;;;;4882707;28;90280;-33
2023/04/12 03:22:53;;;;;;;4.70;2.40;;;8.60;99.90;;;;;;4878716;28;88818;-33
2023/04/12 03:25:19;;;;;;;7.22;2.80;;;8.60;99.90;;;;;;4874755;28;90131;-31
2023/04/12 03:27:45;;;;;;;4.82;2.63;;;8.60;99.90;;;;;;4881719;28;89694;-31
2023/04/12 03:30:11;;;;;;;6.85;3.05;;;8.60;99.90;;;;;;4882823;28;89887;-31
2023/04/12 03:32:38;;;;;;;9.45;3.65;;;8.60;99.90;;;;;;4882091;28;88530;-34
2023/04/12 03:35:06;;;;;;;3.28;2.55;;;8.60;99.90;;;;;;4882227;28;90140;-32
2023/04/12 03:37:32;;;;;;;12.55;2.97;;;8.60;99.90;;;;;;4882234;28;90117;-32
2023/04/12 03:39:57;;;;;;;4.20;1.88;;;8.60;99.90;;;;;;4882431;28;89981;-31
2023/04/12 03:42:23;;;;;;;8.63;2.42;;;8.60;99.90;;;;;;4881905;28;88159;-33
2023/04/12 03:44:51;;;;;;;4.18;2.92;;;8.70;99.90;;;;;;4877750;28;90023;-31
2023/04/12 03:47:17;;;;;;;4.33;3.17;;;8.60;99.90;;;;;;4881093;28;89632;-32
2023/04/12 03:49:42;;;;;;;2.40;2.20;;;8.60;99.90;;;;;;4881932;28;89584;-32
2023/04/12 03:52:08;;;;;;;6.63;2.95;;;8.60;99.90;;;;;;4882552;28;88282;-34
2023/04/12 03:54:34;;;;;;;5.20;3.25;;;8.60;99.90;;;;;;4881945;28;89749;-32
2023/04/12 03:57:00;;;;;;;7.05;2.90;;;8.70;99.90;;;;;;4881432;28;90334;-31
2023/04/12 03:59:27;;;;;;;7.63;3.38;;;8.70;99.90;;;;;;4882577;28;91314;-31
2023/04/12 04:01:53;;;;;;;13.73;3.90;;;8.60;99.90;;;;;;4881757;28;88475;-33
2023/04/12 04:04:20;;;;;;;4.95;2.95;;;8.50;99.90;;;;;;4881137;28;90782;-32
2023/04/12 04:06:46;;;;;;;5.85;2.85;;;8.50;99.90;;;;;;4881942;28;90657;-31
2023/04/12 04:09:11;;;;;;;4.32;2.88;;;8.50;99.90;;;;;;4881949;28;89781;-33
2023/04/12 04:11:37;;;;;;;7.43;2.60;;;8.50;99.90;;;;;;4882228;28;87915;-31
2023/04/12 04:14:02;;;;;;;16.00;4.90;;;8.50;99.90;;;;;;4881463;28;90312;-34
2023/04/12 04:16:29;;;;;;;4.47;3.22;;;8.60;99.90;;;;;;4877058;28;89811;-31
2023/04/12 04:18:55;;;;;;;4.85;3.00;;;8.50;99.90;;;;;;4874666;28;91164;-34
2023/04/12 04:21:21;;;;;;;3.50;2.95;;;8.50;99.90;;;;;;4882083;28;87796;-33
2023/04/12 04:23:47;;;;;;;3.90;2.40;;;8.60;99.90;;;;;;4871212;28;90221;-31
2023/04/12 04:26:14;;;;;;;7.20;3.60;;;8.50;99.90;;;;;;4879785;28;89846;-29
2023/04/12 04:28:43;;;;;;;4.55;4.15;;;8.50;99.90;;;;;;4881567;28;90155;-32
2023/04/12 04:31:10;;;;;;;3.45;2.47;;;8.50;99.90;;;;;;4881137;28;90536;-35
2023/04/12 04:33:36;;;;;;;4.95;3.38;;;8.50;99.90;;;;;;4882262;28;90098;-31
2023/04/12 04:36:08;;;;;;;4.45;2.65;;;8.40;99.90;;;;;;4881366;28;89647;-35
2023/04/12 04:38:35;;;;;;;5.28;2.30;;;8.40;99.90;;;;;;4881924;28;89306;-31
2023/04/12 04:41:01;;;;;;;9.13;3.05;;;8.40;99.90;;;;;;4882971;28;87494;-33
2023/04/12 04:43:30;;;;;;;7.60;3.13;;;8.40;99.90;;;;;;4881505;28;90697;-34
2023/04/12 04:45:56;;;;;;;10.82;3.28;;;8.30;99.90;;;;;;4881812;28;90227;-29
2023/04/12 04:48:23;;;;;;;3.90;2.72;;;8.30;99.90;;;;;;4882198;28;89660;-31
2023/04/12 04:50:50;;;;;;;5.70;3.28;;;8.30;99.90;;;;;;4881230;28;89832;-30
2023/04/12 04:53:18;;;;;;;4.65;2.53;;;8.20;99.90;;;;;;4881427;28;90120;-35
2023/04/12 04:55:43;;;;;;;4.70;2.77;;;8.20;99.90;;;;;;4881379;28;90651;-30
2023/04/12 04:58:10;;;;;;;5.85;3.20;;;8.20;99.90;;;;;;4881108;28;90371;-30
2023/04/12 05:00:37;;;;;;;5.38;3.42;;;8.30;99.90;;;;;;4880993;28;89869;-31
2023/04/12 05:03:03;;;;;;;8.93;3.35;;;8.20;99.90;;;;;;4881346;28;89955;-35
2023/04/12 05:05:29;;;;;;;4.47;2.58;;;8.20;99.90;;;;;;4879986;28;89762;-30
2023/04/12 05:07:55;;;;;;;5.47;2.58;;;8.20;99.90;;;;;;4881257;28;89862;-34
2023/04/12 05:10:21;;;;;;;3.55;2.30;;;8.10;99.90;;;;;;4885272;28;88031;-31
2023/04/12 05:12:47;;;;;;;4.35;3.45;;;8.10;99.90;;;;;;4884261;28;90335;-33
2023/04/12 05:15:13;;;;;;;3.75;2.53;;;8.10;99.90;;;;;;4885220;28;89721;-30
2023/04/12 05:17:38;;;;;;;4.03;2.97;;;8.10;99.90;;;;;;4883547;28;89438;-33
2023/04/12 05:20:06;;;;;;;6.15;2.50;;;8.10;99.90;;;;;;4884410;28;90086;-33
2023/04/12 05:22:32;;;;;;;7.43;2.40;;;8.10;99.90;;;;;;4883198;28;89437;-30
2023/04/12 05:24:58;;;;;;;3.33;2.22;;;8.10;99.90;;;;;;4873516;28;89667;-33
2023/04/12 05:27:26;;;;;;;7.68;2.58;;;8.10;99.90;;;;;;4884003;28;89195;-33
2023/04/12 05:29:52;;;;;;;1.88;1.77;;;8.10;99.90;;;;;;4885034;28;89194;-34
2023/04/12 05:32:18;;;;;;;3.92;2.63;;;8.10;99.90;;;;;;4884556;28;90203;-31
2023/04/12 05:34:44;;;;;;;5.53;2.92;;;8.10;99.90;;;;;;4884303;28;90601;-31
2023/04/12 05:37:10;;;;;;;3.85;2.55;;;8.00;99.90;;;;;;4885263;28;89247;-32
2023/04/12 05:39:36;;;;;;;4.97;2.55;;;8.00;99.90;;;;;;4884195;28;88379;-30
2023/04/12 05:42:01;;;;;;;5.38;2.42;;;8.00;99.90;;;;;;4883783;28;89945;-32
2023/04/12 05:44:27;;;;;;;3.95;2.88;;;8.00;99.90;;;;;;4883289;28;91841;-33
2023/04/12 05:46:53;;;;;;;4.40;2.33;;;7.90;99.90;;;;;;4884027;28;90527;-31
2023/04/12 05:49:18;;;;;;;3.28;2.67;;;7.90;99.90;;;;;;4885042;28;88598;-33
2023/04/12 05:51:44;;;;;;;4.95;2.13;;;8.00;99.90;;;;;;4882960;28;90077;-32
2023/04/12 05:54:09;;;;;;;4.65;3.25;;;8.00;99.90;;;;;;4884268;28;89693;-33
2023/04/12 05:56:36;;;;;;;3.63;2.65;;;7.90;99.90;;;;;;4883098;28;89471;-33
2023/04/12 05:59:03;;;;;;;3.30;1.98;;;7.90;99.90;;;;;;4884305;28;89266;-33
2023/04/12 06:01:31;;;;;;;4.47;2.35;;;7.90;99.90;;;;;;4884345;28;90265;-34
2023/04/12 06:03:57;;;;;;;5.63;2.72;;;7.90;99.90;;;;;;4884297;28;89936;-31
2023/04/12 06:06:23;;;;;;;2.10;1.90;;;7.90;99.90;;;;;;4883178;28;89443;-32
2023/04/12 06:08:48;;;;;;;5.25;2.40;;;7.90;99.90;;;;;;4883624;28;90318;-35
2023/04/12 06:11:15;;;;;;;4.55;2.22;;;7.90;99.90;;;;;;4883496;28;90653;-33
2023/04/12 06:13:40;;;;;;;8.07;2.15;;;7.90;99.90;;;;;;4883943;28;89235;-34
2023/04/12 06:16:06;;;;;;;2.90;2.45;;;7.90;99.90;;;;;;4883489;28;90826;-33
2023/04/12 06:18:32;;;;;;;3.78;2.90;;;7.90;99.90;;;;;;4884348;28;88171;-31
2023/04/12 06:20:59;;;;;;;6.53;2.60;;;7.90;99.90;;;;;;4882557;28;90351;-34
2023/04/12 06:23:24;;;;;;;6.88;2.58;;;7.90;99.90;;;;;;4875164;28;90224;-34
2023/04/12 06:25:52;;;;;;;9.30;2.95;;;7.90;99.90;;;;;;4879371;28;89374;-32
2023/04/12 06:28:17;;;;;;;3.40;2.38;;;7.90;99.90;;;;;;4884624;28;87718;-32
2023/04/12 06:30:43;;;;;;;3.15;2.38;;;7.90;99.90;;;;;;4882696;28;90420;-34
2023/04/12 06:33:11;;;;;;;6.95;2.47;;;7.90;99.90;;;;;;4883223;28;90406;-31
2023/04/12 06:35:36;;;;;;;3.03;2.43;;;7.80;99.90;;;;;;4883543;28;90232;-31
2023/04/12 06:38:02;;;;;;;3.72;2.30;;;7.80;99.90;;;;;;4883617;28;88442;-30
2023/04/12 06:40:28;;;;;;;3.13;2.88;;;7.80;99.90;;;;;;4883848;28;90197;-32
2023/04/12 06:42:53;;;;;;;3.35;2.42;;;7.80;99.90;;;;;;4883100;28;90022;-34
2023/04/12 06:45:19;;;;;;;4.28;2.78;;;7.80;99.90;;;;;;4883154;28;89586;-32
2023/04/12 06:47:46;;;;;;;6.35;3.03;;;7.80;99.90;;;;;;4883433;28;89177;-33
2023/04/12 06:50:12;;;;;;;3.42;2.92;;;7.80;99.90;;;;;;4883337;28;90639;-32
2023/04/12 06:52:37;;;;;;;6.43;3.55;;;7.80;99.90;;;;;;4883397;28;89052;-32
2023/04/12 06:55:03;;;;;;;5.88;2.60;;;7.80;99.90;;;;;;4882589;28;90937;-32
2023/04/12 06:57:29;;;;;;;5.28;3.22;;;7.80;99.90;;;;;;4882583;28;90503;-34
2023/04/12 06:59:55;;;;;;;5.63;2.83;;;7.80;99.90;;;;;;4883089;28;90234;-31
2023/04/12 07:02:21;;;;;;;4.40;2.97;;;7.80;99.90;;;;;;4881809;28;89288;-31
2023/04/12 07:04:50;;;;;;;3.50;2.38;;;7.80;99.90;;;;;;4882717;28;89831;-33
2023/04/12 07:07:16;;;;;;;3.15;2.42;;;7.80;99.90;;;;;;4883384;28;89369;-34
2023/04/12 07:09:42;;;;;;;3.28;2.60;;;7.90;99.90;;;;;;4882064;28;89234;-32
2023/04/12 07:12:07;;;;;;;4.20;3.17;;;7.90;99.90;;;;;;4879723;28;90122;-32
2023/04/12 07:14:33;;;;;;;3.40;1.80;;;7.90;99.90;;;;;;4875192;28;89801;-30
2023/04/12 07:16:59;;;;;;;2.35;2.08;;;7.90;99.90;;;;;;4878933;28;87702;-31
2023/04/12 07:19:24;;;;;;;2.55;2.25;;;7.90;99.90;;;;;;4880122;28;90701;-32
2023/04/12 07:21:50;;;;;;;7.88;2.65;;;7.90;99.90;;;;;;4881547;28;90527;-33
2023/04/12 07:24:15;;;;;;;6.10;3.28;;;7.90;99.90;;;;;;4870054;28;90167;-32
2023/04/12 07:26:41;;;;;;;3.50;2.40;;;7.90;99.90;;;;;;4883165;28;88501;-31
2023/04/12 07:29:06;;;;;;;8.32;3.28;;;7.90;99.90;;;;;;4877621;28;90877;-33
2023/04/12 07:31:32;;;;;;;3.95;2.58;;;7.90;99.90;;;;;;4882761;28;90281;-30
2023/04/12 07:33:58;;;;;;;6.95;3.20;;;8.00;99.90;;;;;;4879474;28;89829;-32
2023/04/12 07:36:23;;;;;;;7.32;4.00;;;7.90;99.90;;;;;;4883289;28;88417;-35
2023/04/12 07:38:53;;;;;;;8.90;3.15;;;7.90;99.90;;;;;;4880125;28;90361;-34
2023/04/12 07:41:20;;;;;;;3.83;2.90;;;8.00;99.90;;;;;;4882911;28;89475;-35
2023/04/12 07:43:46;;;;;;;5.15;3.22;;;8.00;99.90;;;;;;4881913;28;89684;-32
2023/04/12 07:46:11;;;;;;;8.13;3.78;;;8.00;99.90;;;;;;4882109;28;88947;-33
2023/04/12 07:48:37;;;;;;;6.53;3.97;;;8.00;99.90;;;;;;4881211;28;91019;-31
2023/04/12 07:51:03;;;;;;;13.35;3.53;;;8.00;99.90;;;;;;4892419;28;89411;-34
2023/04/12 07:53:28;;;;;;;4.93;3.38;;;7.90;99.90;;;;;;4881628;28;90183;-32
2023/04/12 07:55:54;;;;;;;4.72;3.72;;;7.90;99.90;;;;;;4882722;28;89050;-31
2023/04/12 07:58:21;;;;;;;3.47;2.92;;;7.90;99.90;;;;;;4882615;28;89082;-32
2023/04/12 08:00:49;;;;;;;4.57;3.30;;;7.90;99.90;;;;;;4882484;28;88961;-30
2023/04/12 08:03:17;;;;;;;4.75;3.25;;;8.00;99.90;;;;;;4882708;28;90286;-35
2023/04/12 08:05:43;;;;;;;4.05;3.13;;;8.00;99.90;;;;;;4886258;28;88130;-33
2023/04/12 08:08:09;;;;;;;5.45;3.65;;;7.90;99.90;;;;;;4882066;28;90104;-32
2023/04/12 08:10:36;;;;;;;8.43;3.50;;;7.90;99.90;;;;;;4881350;28;89988;-32
2023/04/12 08:13:02;;;;;;;4.05;3.58;;;8.00;99.90;;;;;;4881361;28;90257;-30
2023/04/12 08:15:28;;;;;;;6.20;3.35;;;8.00;99.90;;;;;;4882454;28;89388;-30
2023/04/12 08:17:53;;;;;;;5.95;4.13;;;8.00;99.90;;;;;;4881397;28;90292;-32
2023/04/12 08:20:19;;;;;;;4.32;3.83;;;8.00;99.90;;;;;;4882106;28;89231;-32
2023/04/12 08:22:45;;;;;;;3.67;3.33;;;8.00;99.90;;;;;;4876256;28;89122;-31
2023/04/12 08:25:12;;;;;;;4.88;3.08;;;8.00;99.90;;;;;;4872857;28;89068;-35
2023/04/12 08:27:42;;;;;;;3.95;3.25;;;8.00;99.90;;;;;;4875195;28;90259;-30
2023/04/12 08:30:08;;;;;;;4.95;3.78;;;8.10;99.90;;;;;;4878247;28;90249;-35
2023/04/12 08:32:36;;;;;;;7.05;3.85;;;8.10;99.90;;;;;;4881228;28;90942;-31
2023/04/12 08:35:02;;;;;;;3.70;2.47;;;8.00;99.90;;;;;;4881059;28;89525;-32
2023/04/12 08:37:28;;;;;;;3.38;3.08;;;8.10;99.90;;;;;;4882576;28;90938;-32
2023/04/12 08:39:53;;;;;;;3.03;2.42;;;8.10;99.90;;;;;;4881335;28;90490;-32
2023/04/12 08:42:19;;;;;;;4.63;2.47;;;8.20;99.90;;;;;;4881368;28;88835;-32
2023/04/12 08:44:45;;;;;;;3.97;3.35;;;8.20;99.90;;;;;;4882803;28;89109;-35
2023/04/12 08:47:11;;;;;;;3.35;2.72;;;8.30;99.90;;;;;;4884500;28;88909;-34
2023/04/12 08:49:37;;;;;;;4.07;3.20;;;8.30;99.90;;;;;;4884600;28;89704;-31
2023/04/12 08:52:07;;;;;;;2.97;2.67;;;8.40;99.90;;;;;;4885353;28;89979;-32
2023/04/12 08:54:34;;;;;;;3.58;2.70;;;8.40;99.90;;;;;;4891540;28;88406;-34
2023/04/12 08:57:03;;;;;;;4.78;4.35;;;8.40;99.90;;;;;;4884434;28;90004;-35
2023/04/12 08:59:30;;;;;;;4.70;3.25;;;8.50;99.90;;;;;;4884726;28;89709;-34
2023/04/12 09:01:57;;;;;;;3.95;3.55;;;8.50;99.90;;;;;;4884641;28;90728;-30
2023/04/12 09:04:23;;;;;;;6.05;3.90;;;8.50;99.90;;;;;;4884390;28;90073;-33
2023/04/12 09:06:49;;;;;;;7.10;3.50;;;8.60;99.90;;;;;;4884206;28;90127;-33
2023/04/12 09:09:15;;;;;;;5.85;3.95;;;8.50;99.90;;;;;;4884478;28;89781;-34
2023/04/12 09:11:41;;;;;;;3.95;3.55;;;8.50;99.90;;;;;;4883479;28;88484;-31
2023/04/12 09:14:24;;;;;;;4.35;3.70;;;8.50;99.90;;;;;;4885147;28;90274;-32
2023/04/12 09:16:50;;;;;;;4.85;3.55;;;8.50;99.90;;;;;;4884754;28;89869;-31
2023/04/12 09:19:30;;;;;;;4.80;4.13;;;8.50;99.90;;;;;;4884224;28;89920;-32
2023/04/12 09:21:56;;;;;;;5.45;3.80;;;8.60;99.90;;;;;;4883902;28;89359;-34
2023/04/12 09:24:24;;;;;;;4.72;4.22;;;8.60;99.90;;;;;;4871123;28;90165;-32
2023/04/12 09:27:02;;;;;;;5.13;4.00;;;8.50;99.90;;;;;;4884192;28;91303;-32
2023/04/12 09:29:28;;;;;;;6.75;4.43;;;8.50;99.90;;;;;;4883367;28;90602;-31
2023/04/12 09:32:06;;;;;;;5.10;4.60;;;8.50;99.90;;;;;;4884814;28;90105;-35
2023/04/12 09:34:34;;;;;;;5.20;4.27;;;8.60;99.90;;;;;;4872074;28;88002;-33
2023/04/12 09:37:12;;;;;;;6.00;4.82;;;8.60;99.90;;;;;;4882558;28;90205;-32
2023/04/12 09:39:38;;;;;;;4.80;4.30;;;8.60;99.90;;;;;;4884474;28;89762;-32
2023/04/12 09:42:11;;;;;;;5.75;4.97;;;8.60;99.90;;;;;;4883894;28;89259;-32
2023/04/12 09:44:38;;;;;;;6.68;4.82;;;8.60;99.90;;;;;;4883990;28;90130;-33
2023/04/12 09:47:04;;;;;;;8.55;5.22;;;8.60;99.90;;;;;;4883953;28;90228;-31
2023/04/12 09:49:41;;;;;;;7.40;5.22;;;8.60;99.90;;;;;;4883421;28;90646;-31
2023/04/12 09:52:09;;;;;;;6.43;5.07;;;8.60;99.90;;;;;;4884464;28;90862;-31
2023/04/12 09:54:47;;;;;;;5.97;5.45;;;8.60;99.90;;;;;;4883733;28;90018;-32
2023/04/12 09:57:16;;;;;;;5.95;5.35;;;8.60;99.90;;;;;;4882800;28;90041;-32
2023/04/12 09:59:43;;;;;;;5.75;5.00;;;8.70;99.90;;;;;;4883000;28;89300;-32
2023/04/12 10:02:17;;;;;;;6.60;6.00;;;8.90;99.90;;;;;;4883771;28;89507;-31
2023/04/12 10:04:43;;;;;;;5.88;4.68;;;9.00;99.90;;;;;;4882813;28;89689;-32
2023/04/12 10:07:13;;;;;;;5.43;4.93;;;9.00;99.90;;;;;;4884323;28;90308;-32
2023/04/12 10:09:39;;;;;;;5.10;4.22;;;9.10;99.90;;;;;;4883828;28;89984;-34
2023/04/12 10:12:05;;;;;;;5.57;5.03;;;9.30;99.90;;;;;;4884091;28;89712;-33
2023/04/12 10:14:31;;;;;;;8.23;5.55;;;9.40;99.90;;;;;;4882966;28;89908;-33
2023/04/12 10:16:59;;;;;;;8.88;6.22;;;9.40;99.90;;;;;;4883138;28;89594;-31
2023/04/12 10:19:27;;;;;;;8.25;6.03;;;9.50;99.90;;;;;;4883565;28;90385;-33
2023/04/12 10:21:54;;;;;;;8.55;5.10;;;9.50;99.90;;;;;;4884218;28;89506;-30
2023/04/12 10:24:22;;;;;;;7.32;6.07;;;9.60;99.90;;;;;;4870307;28;89382;-33
2023/04/12 10:26:49;;;;;;;10.50;5.40;;;9.60;99.90;;;;;;4883174;28;90307;-34
2023/04/12 10:29:24;;;;;;;11.50;6.32;;;9.80;99.90;;;;;;4883327;28;90346;-31
2023/04/12 10:31:51;;;;;;;10.82;6.60;;;9.90;99.90;;;;;;4884033;28;89233;-34
2023/04/12 10:34:22;;;;;;;5.90;5.28;;;10.10;99.90;;;;;;4883549;28;90402;-30
2023/04/12 10:36:58;;;;;;;6.30;5.55;;;10.10;99.90;;;;;;4882604;28;89298;-34
2023/04/12 10:39:39;;;;;;;7.07;5.60;;;10.20;99.90;;;;;;4868781;28;90224;-35
2023/04/12 10:42:26;;;;;;;7.25;5.50;;;10.20;99.90;;;;;;4882733;28;90507;-34
2023/04/12 10:44:53;;;;;;;7.55;5.50;;;10.30;99.90;;;;;;4882488;28;89595;-34
2023/04/12 10:47:47;;;;;;;7.10;4.65;;;10.30;99.90;;;;;;4883644;28;90267;-34
2023/04/12 10:50:32;;;;;;;6.53;5.50;;;10.30;99.90;;;;;;4882684;28;90762;-31
2023/04/12 10:53:11;;;;;;;6.03;5.15;;;10.40;99.90;;;;;;4882693;28;89156;-38
2023/04/12 10:55:38;;;;;;;8.30;5.20;;;10.50;99.90;;;;;;4883250;28;88803;-33
2023/04/12 10:58:04;;;;;;;8.38;4.68;;;10.60;99.90;;;;;;4881691;28;89999;-33
2023/04/12 11:01:05;;;;;;;5.20;4.20;;;10.60;99.90;;;;;;4883132;28;89975;-30
2023/04/12 11:03:31;;;;;;;7.97;4.85;;;10.80;99.90;;;;;;4825844;29;90050;-32
2023/04/12 11:05:57;;;;;;;8.68;4.65;;;10.70;99.90;;;;;;4868816;28;90277;-30
2023/04/12 11:08:22;;;;;;;5.40;4.50;;;10.90;99.90;;;;;;4882923;28;88917;-35
2023/04/12 11:10:49;;;;;;;6.00;4.13;;;11.00;99.90;;;;;;4882739;28;90922;-32
2023/04/12 11:13:15;;;;;;;6.55;5.20;;;11.40;99.90;;;;;;4882389;28;89148;-30
2023/04/12 11:15:41;;;;;;;7.80;4.53;;;11.60;99.90;;;;;;4882983;28;90502;-32
2023/04/12 11:18:07;;;;;;;8.32;5.10;;;11.70;99.90;;;;;;4882284;28;90186;-31
2023/04/12 11:20:33;;;;;;;8.55;5.93;;;11.80;99.90;;;;;;4882709;28;89349;-35
2023/04/12 11:22:59;;;;;;;7.70;5.32;;;11.70;99.90;;;;;;4882719;28;89925;-30
2023/04/12 11:25:25;;;;;;;10.80;5.68;;;11.80;99.90;;;;;;4882513;28;88166;-32
2023/04/12 11:27:52;;;;;;;9.98;4.88;;;11.60;99.90;;;;;;4882450;28;90634;-34
2023/04/12 11:30:18;;;;;;;6.43;4.45;;;11.70;99.90;;;;;;4882410;28;90735;-32
2023/04/12 11:32:44;;;;;;;9.32;5.00;;;11.60;99.90;;;;;;4881759;28;90908;-31
2023/04/12 11:35:10;;;;;;;11.57;5.00;;;11.70;99.90;;;;;;4882895;28;88971;-34
2023/04/12 11:37:37;;;;;;;9.65;4.82;;;11.90;99.90;;;;;;4881986;28;89392;-32
2023/04/12 11:40:06;;;;;;;6.70;4.10;;;12.20;99.90;;;;;;4882068;28;90202;-32
2023/04/12 11:42:32;;;;;;;7.80;4.47;;;12.50;99.90;;;;;;4882219;28;89033;-34
2023/04/12 11:44:58;;;;;;;5.90;4.15;;;12.40;99.90;;;;;;4883107;28;89957;-31
2023/04/12 11:47:24;;;;;;;7.40;4.68;;;12.50;99.90;;;;;;4881648;28;89942;-34
2023/04/12 11:49:52;;;;;;;12.68;4.18;;;12.80;99.90;;;;;;4882139;28;89502;-32
2023/04/12 11:52:19;;;;;;;5.70;2.83;;;12.70;99.90;;;;;;4882531;28;89627;-31
2023/04/12 11:54:49;;;;;;;6.07;2.90;;;12.80;99.90;;;;;;4881421;28;89942;-31
2023/04/12 11:57:16;;;;;;;4.95;3.10;;;12.80;99.90;;;;;;4883020;28;90158;-34
2023/04/12 11:59:44;;;;;;;8.15;3.33;;;12.50;99.90;;;;;;4881150;28;89369;-30
2023/04/12 12:02:10;;;;;;;3.40;3.00;;;12.40;99.90;;;;;;4881557;28;89280;-30
2023/04/12 12:04:37;;;;;;;9.68;2.50;;;12.40;99.90;;;;;;4917492;23;88072;-31
2023/04/12 12:07:03;;;;;;;12.88;3.55;;;12.60;99.90;;;;;;4901006;28;91227;-34
2023/04/12 12:09:29;;;;;;;8.90;4.10;;;12.70;99.90;;;;;;4900891;28;90720;-35
2023/04/12 12:11:55;;;;;;;5.57;3.55;;;12.90;99.90;;;;;;4901784;28;89654;-32
2023/04/12 12:14:22;;;;;;;6.45;3.25;;;12.80;99.90;;;;;;4900303;28;88330;-33
2023/04/12 12:16:53;;;;;;;9.55;3.83;;;12.80;99.90;;;;;;4900227;28;90019;-32
2023/04/12 12:19:30;;;;;;;8.45;3.20;;;12.80;99.90;;;;;;4899446;28;89169;-33
2023/04/12 12:22:12;;;;;;;4.00;3.30;;;13.10;99.90;;;;;;4900725;28;90587;-34
2023/04/12 12:24:49;;;;;;;9.90;3.70;;;13.30;99.90;;;;;;4887434;28;89742;-33
2023/04/12 12:27:21;;;;;;;11.27;4.53;;;13.50;99.90;;;;;;4900194;28;90314;-32
2023/04/12 12:29:50;;;;;;;6.22;2.40;;;13.50;99.90;;;;;;4888093;28;91017;-33
2023/04/12 12:32:17;;;;;;;8.73;4.00;;;13.50;99.90;;;;;;4899986;28;89477;-33
2023/04/12 12:34:53;;;;;;;8.98;4.07;;;13.50;99.90;;;;;;4900968;28;88345;-32
2023/04/12 12:37:24;;;;;;;4.30;2.70;;;13.70;99.90;;;;;;4901298;28;88343;-33
2023/04/12 12:40:13;;;;;;;8.60;3.17;;;13.60;99.90;;;;;;4900913;28;88475;-33
2023/04/12 12:42:51;;;;;;;7.00;3.47;;;13.60;99.90;;;;;;4914040;28;88716;-32
2023/04/12 12:45:21;;;;;;;7.70;4.35;;;13.50;99.90;;;;;;4900647;28;90576;-30
2023/04/12 12:47:52;;;;;;;8.07;3.33;;;13.50;99.90;;;;;;4901118;28;89046;-32
2023/04/12 12:50:21;;;;;;;9.07;3.33;;;13.60;99.90;;;;;;4900419;28;89910;-32
2023/04/12 12:52:47;;;;;;;5.50;2.97;;;13.60;99.90;;;;;;4900354;28;89640;-33
2023/04/12 12:55:14;;;;;;;7.43;3.03;;;13.60;99.90;;;;;;4900686;28;88222;-31
2023/04/12 12:57:42;;;;;;;15.18;4.63;;;13.40;99.90;;;;;;4900300;28;91198;-34
2023/04/12 13:00:09;;;;;;;10.67;3.80;;;13.10;99.90;;;;;;4899660;28;89935;-34